createdAt,value
2023-04-16T00:00:24.314Z,98855.27
2023-04-16T00:03:28.050Z,98860.74
2023-04-16T00:06:03.926Z,98860.02
2023-04-16T00:08:41.113Z,98861.52
2023-04-16T00:11:16.613Z,98868.73
2023-04-16T00:14:00.696Z,98865.88
2023-04-16T00:16:36.978Z,98867.72
2023-04-16T00:19:11.512Z,98869.01
2023-04-16T00:21:44.342Z,98871.00
2023-04-16T00:24:19.868Z,98874.39
2023-04-16T00:26:54.544Z,98876.00
2023-04-16T00:29:28.934Z,98877.14
2023-04-16T00:32:01.477Z,98874.27
2023-04-16T00:34:34.353Z,98874.02
2023-04-16T00:37:07.496Z,98875.52
2023-04-16T00:39:40.185Z,98875.06
2023-04-16T00:42:13.169Z,98874.83
2023-04-16T00:44:45.899Z,98879.61
2023-04-16T00:47:18.687Z,98879.06
2023-04-16T00:49:53.706Z,98884.53
2023-04-16T00:52:29.201Z,98884.66
2023-04-16T00:55:02.442Z,98887.59
2023-04-16T00:57:35.658Z,98883.27
2023-04-16T01:00:10.099Z,98880.88
2023-04-16T01:02:42.850Z,98884.52
2023-04-16T01:05:19.116Z,98879.30
2023-04-16T01:08:03.139Z,98886.36
2023-04-16T01:10:37.465Z,98887.38
2023-04-16T01:13:10.205Z,98888.58
2023-04-16T01:15:44.094Z,98886.34
2023-04-16T01:18:37.909Z,98883.05
2023-04-16T01:21:10.605Z,98880.80
2023-04-16T01:23:43.041Z,98883.02
2023-04-16T01:26:19.526Z,98879.49
2023-04-16T01:28:52.153Z,98877.67
2023-04-16T01:31:34.789Z,98880.56
2023-04-16T01:34:13.318Z,98879.27
2023-04-16T01:36:50.157Z,98877.61
2023-04-16T01:39:25.522Z,98879.45
2023-04-16T01:42:11.233Z,98876.83
2023-04-16T01:44:44.733Z,98886.20
2023-04-16T01:47:17.702Z,98886.95
2023-04-16T01:49:53.407Z,98885.42
2023-04-16T01:52:37.266Z,98887.92
2023-04-16T01:55:12.017Z,98889.00
2023-04-16T01:57:47.536Z,98889.53
2023-04-16T02:00:23.210Z,98887.46
2023-04-16T02:02:58.368Z,98889.34
2023-04-16T02:05:32.998Z,98893.44
2023-04-16T02:08:09.536Z,98889.74
2023-04-16T02:10:42.397Z,98891.13
2023-04-16T02:13:15.564Z,98893.21
2023-04-16T02:15:51.760Z,98892.52
2023-04-16T02:18:37.460Z,98895.41
2023-04-16T02:21:11.004Z,98900.04
2023-04-16T02:23:47.638Z,98899.62
2023-04-16T02:26:21.176Z,98899.66
2023-04-16T02:28:58.927Z,98897.01
2023-04-16T02:31:37.596Z,98895.42
2023-04-16T02:34:11.002Z,98895.52
2023-04-16T02:36:45.502Z,98898.91
2023-04-16T02:39:21.703Z,98904.77
2023-04-16T02:41:59.534Z,98905.60
2023-04-16T02:44:43.018Z,98909.22
2023-04-16T02:47:18.789Z,98909.21
2023-04-16T02:49:51.486Z,98912.51
2023-04-16T02:52:23.746Z,98915.09
2023-04-16T02:54:58.921Z,98912.86
2023-04-16T02:57:31.491Z,98911.73
2023-04-16T03:00:06.337Z,98910.10
2023-04-16T03:02:39.324Z,98911.73
2023-04-16T03:05:12.689Z,98910.11
2023-04-16T03:07:45.514Z,98908.65
2023-04-16T03:10:29.502Z,98910.50
2023-04-16T03:13:02.640Z,98910.58
2023-04-16T03:15:38.093Z,98914.63
2023-04-16T03:18:13.006Z,98919.15
2023-04-16T03:20:47.474Z,98924.04
2023-04-16T03:23:40.486Z,98929.58
2023-04-16T03:26:15.130Z,98934.89
2023-04-16T03:28:48.208Z,98939.20
2023-04-16T03:31:27.369Z,98943.54
2023-04-16T03:34:03.949Z,98949.25
2023-04-16T03:36:40.092Z,98953.23
2023-04-16T03:39:22.492Z,98946.78
2023-04-16T03:41:55.083Z,98955.38
2023-04-16T03:44:28.006Z,98955.73
2023-04-16T03:47:03.335Z,98963.16
2023-04-16T03:49:36.175Z,98967.67
2023-04-16T03:52:09.181Z,98966.83
2023-04-16T03:54:42.032Z,98974.32
2023-04-16T03:57:27.223Z,98972.80
2023-04-16T04:00:03.746Z,98977.52
2023-04-16T04:02:46.631Z,98979.78
2023-04-16T04:05:23.182Z,98984.15
2023-04-16T04:07:56.110Z,98981.29
2023-04-16T04:10:28.607Z,98982.13
2023-04-16T04:13:01.662Z,98983.03
2023-04-16T04:15:34.480Z,98989.03
2023-04-16T04:18:07.613Z,98987.55
2023-04-16T04:20:43.373Z,98999.42
2023-04-16T04:23:26.336Z,99000.63
2023-04-16T04:25:59.588Z,99004.53
2023-04-16T04:28:35.209Z,99005.86
2023-04-16T04:31:10.674Z,99007.02
2023-04-16T04:33:56.386Z,99005.84
2023-04-16T04:36:33.927Z,99005.73
2023-04-16T04:39:07.464Z,99010.29
2023-04-16T04:41:43.987Z,99014.55
2023-04-16T04:44:19.344Z,99016.51
2023-04-16T04:46:52.341Z,99016.75
2023-04-16T04:49:25.324Z,99022.09
2023-04-16T04:51:58.485Z,99028.26
2023-04-16T04:54:32.411Z,99036.02
2023-04-16T04:57:05.148Z,99038.41
2023-04-16T04:59:38.022Z,99040.39
2023-04-16T05:02:10.861Z,99043.14
2023-04-16T05:04:43.656Z,99044.10
2023-04-16T05:07:16.438Z,99042.04
2023-04-16T05:09:49.346Z,99038.02
2023-04-16T05:12:21.787Z,99035.91
2023-04-16T05:14:54.408Z,99038.16
2023-04-16T05:17:27.044Z,99036.95
2023-04-16T05:19:59.846Z,99042.23
2023-04-16T05:22:32.141Z,99045.27
2023-04-16T05:25:04.682Z,99045.79
2023-04-16T05:27:38.539Z,99047.38
2023-04-16T05:30:12.476Z,99046.76
2023-04-16T05:32:45.239Z,99047.02
2023-04-16T05:35:18.081Z,99043.78
2023-04-16T05:37:50.815Z,99040.73
2023-04-16T05:40:23.810Z,99042.05
2023-04-16T05:42:56.473Z,99042.29
2023-04-16T05:45:31.513Z,99041.30
2023-04-16T05:48:04.240Z,99044.48
2023-04-16T05:50:40.537Z,99049.56
2023-04-16T05:53:14.359Z,99050.63
2023-04-16T05:55:48.634Z,99050.09
2023-04-16T05:58:21.151Z,99052.19
2023-04-16T06:00:57.363Z,99055.99
2023-04-16T06:03:30.519Z,99058.39
2023-04-16T06:06:06.204Z,99064.61
2023-04-16T06:08:59.105Z,99067.83
2023-04-16T06:11:41.828Z,99066.16
2023-04-16T06:14:16.245Z,99068.66
2023-04-16T06:16:53.697Z,99070.60
2023-04-16T06:19:26.129Z,99066.58
2023-04-16T06:22:18.755Z,99073.10
2023-04-16T06:25:12.472Z,99073.80
2023-04-16T06:27:44.965Z,99076.80
2023-04-16T06:30:19.921Z,99079.83
2023-04-16T06:33:13.354Z,99083.00
2023-04-16T06:35:45.809Z,99086.13
2023-04-16T06:38:19.992Z,99091.04
2023-04-16T06:41:12.798Z,99092.80
2023-04-16T06:44:06.541Z,99092.30
2023-04-16T06:46:49.176Z,99090.91
2023-04-16T06:49:24.283Z,99091.14
2023-04-16T06:52:17.316Z,99090.99
2023-04-16T06:55:11.464Z,99089.73
2023-04-16T06:57:44.390Z,99088.52
2023-04-16T07:00:18.038Z,99091.16
2023-04-16T07:02:51.442Z,99089.77
2023-04-16T07:05:37.516Z,99089.70
2023-04-16T07:08:13.924Z,99095.27
2023-04-16T07:10:46.835Z,99096.09
2023-04-16T07:13:27.806Z,99098.70
2023-04-16T07:16:02.990Z,99104.84
2023-04-16T07:18:58.347Z,99096.41
2023-04-16T07:21:43.883Z,99098.73
2023-04-16T07:24:39.690Z,99100.82
2023-04-16T07:27:32.479Z,99103.36
2023-04-16T07:30:05.399Z,99111.30
2023-04-16T07:32:42.059Z,99113.63
2023-04-16T07:35:14.838Z,99113.50
2023-04-16T07:37:55.053Z,99113.38
2023-04-16T07:40:27.984Z,99115.11
2023-04-16T07:43:02.016Z,99112.45
2023-04-16T07:45:34.842Z,99115.25
2023-04-16T07:48:08.056Z,99117.43
2023-04-16T07:50:43.639Z,99123.54
2023-04-16T07:53:27.009Z,99118.86
2023-04-16T07:56:11.146Z,99117.75
2023-04-16T07:58:52.950Z,99115.10
2023-04-16T08:01:25.602Z,99117.95
2023-04-16T08:03:58.666Z,99116.52
2023-04-16T08:06:31.628Z,99116.13
2023-04-16T08:09:04.805Z,99123.02
2023-04-16T08:11:40.095Z,99125.38
2023-04-16T08:14:12.793Z,99119.33
2023-04-16T08:16:45.005Z,99117.31
2023-04-16T08:19:21.027Z,99122.33
2023-04-16T08:21:57.427Z,99119.44
2023-04-16T08:24:32.785Z,99117.95
2023-04-16T08:27:17.908Z,99118.06
2023-04-16T08:29:57.513Z,99122.98
2023-04-16T08:32:33.608Z,99126.05
2023-04-16T08:35:14.748Z,99124.62
2023-04-16T08:37:47.402Z,99123.49
2023-04-16T08:40:22.443Z,99128.44
2023-04-16T08:43:17.269Z,99128.05
2023-04-16T08:45:57.523Z,99129.23
2023-04-16T08:48:34.236Z,99131.33
2023-04-16T08:51:09.345Z,99130.29
2023-04-16T08:53:50.646Z,99133.45
2023-04-16T08:56:25.053Z,99128.79
2023-04-16T08:59:02.335Z,99133.49
2023-04-16T09:01:36.624Z,99134.20
2023-04-16T09:04:10.435Z,99138.29
2023-04-16T09:06:44.926Z,99135.52
2023-04-16T09:09:22.139Z,99141.23
2023-04-16T09:11:57.495Z,99144.85
2023-04-16T09:14:30.465Z,99145.61
2023-04-16T09:17:04.982Z,99149.14
2023-04-16T09:19:37.514Z,99150.98
2023-04-16T09:22:11.830Z,99152.00
2023-04-16T09:24:46.782Z,99147.10
2023-04-16T09:27:20.376Z,99146.36
2023-04-16T09:29:53.040Z,99147.63
2023-04-16T09:32:30.184Z,99144.58
2023-04-16T09:35:05.981Z,99141.52
2023-04-16T09:37:38.712Z,99143.89
2023-04-16T09:40:17.318Z,99141.25
2023-04-16T09:42:58.137Z,99140.06
2023-04-16T09:45:49.048Z,99139.67
2023-04-16T09:48:46.906Z,99137.08
2023-04-16T09:51:22.484Z,99141.91
2023-04-16T09:54:00.929Z,99147.36
2023-04-16T09:56:45.716Z,99145.23
2023-04-16T09:59:22.501Z,99145.59
2023-04-16T10:02:15.567Z,99139.86
2023-04-16T10:04:53.947Z,99141.16
2023-04-16T10:07:31.700Z,99138.95
2023-04-16T10:10:03.736Z,99145.61
2023-04-16T10:12:39.689Z,99145.17
2023-04-16T10:15:14.163Z,99145.09
2023-04-16T10:17:46.918Z,99152.89
2023-04-16T10:20:19.602Z,99151.13
2023-04-16T10:22:52.249Z,99148.64
2023-04-16T10:25:26.276Z,99148.44
2023-04-16T10:28:10.709Z,99147.95
2023-04-16T10:30:48.357Z,99149.55
2023-04-16T10:33:23.497Z,99146.56
2023-04-16T10:36:11.044Z,99150.19
2023-04-16T10:38:54.814Z,99153.76
2023-04-16T10:41:28.521Z,99150.95
2023-04-16T10:44:10.777Z,99148.63
2023-04-16T10:46:44.299Z,99147.20
2023-04-16T10:49:19.281Z,99143.30
2023-04-16T10:51:59.672Z,99137.61
2023-04-16T10:54:36.749Z,99142.88
2023-04-16T10:57:10.502Z,99141.79
2023-04-16T10:59:53.320Z,99138.58
2023-04-16T11:02:32.835Z,99135.46
2023-04-16T11:05:06.708Z,99138.11
2023-04-16T11:07:39.580Z,99139.08
2023-04-16T11:10:16.048Z,99136.29
2023-04-16T11:12:49.730Z,99140.45
2023-04-16T11:15:30.937Z,99148.64
2023-04-16T11:18:04.237Z,99147.67
2023-04-16T11:20:44.420Z,99152.52
2023-04-16T11:23:18.602Z,99150.77
2023-04-16T11:25:57.441Z,99149.88
2023-04-16T11:28:40.693Z,99145.88
2023-04-16T11:31:21.235Z,99141.52
2023-04-16T11:33:54.425Z,99137.14
2023-04-16T11:36:27.924Z,99129.40
2023-04-16T11:39:06.726Z,99128.93
2023-04-16T11:41:46.041Z,99131.69
2023-04-16T11:44:23.591Z,99127.92
2023-04-16T11:46:56.695Z,99128.97
2023-04-16T11:49:32.179Z,99124.61
2023-04-16T11:52:05.087Z,99123.80
2023-04-16T11:54:39.164Z,99128.45
2023-04-16T11:57:15.316Z,99129.77
2023-04-16T12:00:02.229Z,99130.77
2023-04-16T12:02:54.953Z,99132.20
2023-04-16T12:05:32.392Z,99128.29
2023-04-16T12:08:06.991Z,99127.98
2023-04-16T12:10:57.416Z,99131.19
2023-04-16T12:13:30.553Z,99136.71
2023-04-16T12:16:03.133Z,99134.20
2023-04-16T12:18:36.037Z,99125.27
2023-04-16T12:21:09.165Z,99123.95
2023-04-16T12:23:42.708Z,99122.77
2023-04-16T12:26:15.643Z,99121.20
2023-04-16T12:29:22.701Z,99123.02
2023-04-16T12:31:56.338Z,99118.92
2023-04-16T12:34:53.226Z,99117.35
2023-04-16T12:37:31.060Z,99113.54
2023-04-16T12:40:07.404Z,99112.11
2023-04-16T12:42:49.250Z,99110.00
2023-04-16T12:45:22.303Z,99108.42
2023-04-16T12:47:57.465Z,99114.77
2023-04-16T12:50:32.650Z,99116.20
2023-04-16T12:53:05.477Z,99113.63
2023-04-16T12:55:38.258Z,99112.23
2023-04-16T12:58:12.592Z,99113.20
2023-04-16T13:00:47.201Z,99110.79
2023-04-16T13:03:21.194Z,99107.36
2023-04-16T13:05:53.820Z,99110.66
2023-04-16T13:08:37.487Z,99110.48
2023-04-16T13:11:14.282Z,99115.36
2023-04-16T13:13:59.899Z,99113.77
2023-04-16T13:16:52.483Z,99114.99
2023-04-16T13:19:35.746Z,99115.58
2023-04-16T13:22:21.181Z,99111.73
2023-04-16T13:25:16.427Z,99111.15
2023-04-16T13:27:48.956Z,99114.21
2023-04-16T13:30:43.390Z,99112.30
2023-04-16T13:33:36.660Z,99114.09
2023-04-16T13:36:32.473Z,99114.73
2023-04-16T13:39:11.495Z,99114.55
2023-04-16T13:42:04.401Z,99112.91
2023-04-16T13:44:54.233Z,99109.59
2023-04-16T13:47:26.768Z,99105.46
2023-04-16T13:50:20.851Z,99102.02
2023-04-16T13:53:13.619Z,99102.14
2023-04-16T13:56:11.154Z,99100.44
2023-04-16T13:58:51.257Z,99100.66
2023-04-16T14:01:23.901Z,99096.77
2023-04-16T14:04:02.037Z,99098.35
2023-04-16T14:06:54.901Z,99096.11
2023-04-16T14:09:47.878Z,99092.17
2023-04-16T14:12:41.002Z,99095.87
2023-04-16T14:15:17.072Z,99091.35
2023-04-16T14:17:54.438Z,99088.39
2023-04-16T14:20:47.188Z,99087.45
2023-04-16T14:23:28.372Z,99089.40
2023-04-16T14:26:06.285Z,99094.02
2023-04-16T14:28:58.985Z,99095.57
2023-04-16T14:31:41.698Z,99091.41
2023-04-16T14:34:18.367Z,99090.17
2023-04-16T14:36:54.055Z,99090.25
2023-04-16T14:39:47.134Z,99091.20
2023-04-16T14:42:28.525Z,99090.53
2023-04-16T14:45:03.977Z,99092.08
2023-04-16T14:47:58.536Z,99088.55
2023-04-16T14:50:51.790Z,99085.98
2023-04-16T14:53:46.761Z,99087.81
2023-04-16T14:56:39.451Z,99087.23
2023-04-16T14:59:25.990Z,99084.98
2023-04-16T15:02:10.795Z,99088.23
2023-04-16T15:04:50.784Z,99088.19
2023-04-16T15:07:44.719Z,99089.34
2023-04-16T15:10:20.943Z,99092.58
2023-04-16T15:13:13.811Z,99097.23
2023-04-16T15:16:01.028Z,99093.09
2023-04-16T15:18:53.995Z,99097.54
2023-04-16T15:21:31.725Z,99100.52
2023-04-16T15:24:22.982Z,99101.50
2023-04-16T15:26:56.270Z,99105.32
2023-04-16T15:29:38.028Z,99106.98
2023-04-16T15:32:20.886Z,99104.84
2023-04-16T15:34:56.518Z,99105.41
2023-04-16T15:37:39.752Z,99107.42
2023-04-16T15:40:32.958Z,99109.81
2023-04-16T15:43:09.115Z,99113.61
2023-04-16T15:46:02.404Z,99111.05
2023-04-16T15:48:34.872Z,99110.77
2023-04-16T15:51:09.087Z,99116.52
2023-04-16T15:53:52.019Z,99121.65
2023-04-16T15:56:28.650Z,99120.83
2023-04-16T15:59:04.511Z,99122.10
2023-04-16T16:01:57.715Z,99129.28
2023-04-16T16:04:49.884Z,99133.28
2023-04-16T16:07:36.793Z,99130.65
2023-04-16T16:10:29.825Z,99131.50
2023-04-16T16:13:22.667Z,99132.17
2023-04-16T16:16:08.846Z,99135.14
2023-04-16T16:18:42.198Z,99136.27
2023-04-16T16:21:35.070Z,99140.23
2023-04-16T16:24:24.506Z,99135.06
2023-04-16T16:27:18.574Z,99139.52
2023-04-16T16:29:54.489Z,99142.46
2023-04-16T16:32:47.352Z,99146.64
2023-04-16T16:35:32.578Z,99145.00
2023-04-16T16:38:07.790Z,99146.82
2023-04-16T16:40:43.783Z,99147.44
2023-04-16T16:43:18.668Z,99148.06
2023-04-16T16:45:51.151Z,99150.10
2023-04-16T16:48:24.030Z,99152.66
2023-04-16T16:50:56.536Z,99155.23
2023-04-16T16:53:29.445Z,99160.74
2023-04-16T16:56:02.112Z,99161.51
2023-04-16T16:58:35.142Z,99161.40
2023-04-16T17:01:07.860Z,99162.34
2023-04-16T17:03:40.620Z,99163.98
2023-04-16T17:06:13.397Z,99166.00
2023-04-16T17:08:47.621Z,99171.17
2023-04-16T17:11:20.124Z,99174.98
2023-04-16T17:13:52.584Z,99174.89
2023-04-16T17:16:34.715Z,99179.73
2023-04-16T17:19:20.890Z,99185.05
2023-04-16T17:21:55.117Z,99184.77
2023-04-16T17:24:27.630Z,99190.10
2023-04-16T17:27:00.203Z,99191.52
2023-04-16T17:29:35.619Z,99194.36
2023-04-16T17:32:10.694Z,99197.20
2023-04-16T17:34:44.132Z,99201.63
2023-04-16T17:37:16.581Z,99206.21
2023-04-16T17:40:12.887Z,99203.04
2023-04-16T17:43:06.116Z,99208.84
2023-04-16T17:45:59.630Z,99210.58
2023-04-16T17:48:52.392Z,99208.61
2023-04-16T17:51:47.191Z,99206.11
2023-04-16T17:54:29.691Z,99209.92
2023-04-16T17:57:05.220Z,99213.56
2023-04-16T17:59:41.101Z,99215.46
2023-04-16T18:02:14.122Z,99221.04
2023-04-16T18:04:56.288Z,99219.55
2023-04-16T18:07:49.429Z,99223.52
2023-04-16T18:10:31.543Z,99223.98
2023-04-16T18:13:06.833Z,99224.44
2023-04-16T18:15:40.234Z,99222.05
2023-04-16T18:18:33.865Z,99228.30
2023-04-16T18:21:19.030Z,99225.92
2023-04-16T18:23:51.911Z,99230.73
2023-04-16T18:26:40.819Z,99231.70
2023-04-16T18:29:14.206Z,99234.79
2023-04-16T18:31:47.416Z,99239.08
2023-04-16T18:34:20.869Z,99240.55
2023-04-16T18:36:55.677Z,99242.73
2023-04-16T18:39:28.464Z,99242.13
2023-04-16T18:42:01.519Z,99245.88
2023-04-16T18:44:34.089Z,99255.92
2023-04-16T18:47:07.253Z,99257.38
2023-04-16T18:49:41.420Z,99263.02
2023-04-16T18:52:14.087Z,99260.61
2023-04-16T18:54:46.895Z,99261.86
2023-04-16T18:57:19.320Z,99258.38
2023-04-16T18:59:51.717Z,99261.20
2023-04-16T19:02:24.660Z,99264.18
2023-04-16T19:04:57.716Z,99264.19
2023-04-16T19:07:30.766Z,99263.14
2023-04-16T19:10:03.597Z,99263.49
2023-04-16T19:12:39.360Z,99263.52
2023-04-16T19:15:14.963Z,99264.92
2023-04-16T19:17:47.826Z,99263.36
2023-04-16T19:20:23.479Z,99267.39
2023-04-16T19:22:56.571Z,99267.93
2023-04-16T19:25:31.560Z,99264.80
2023-04-16T19:28:04.242Z,99265.34
2023-04-16T19:30:57.281Z,99263.77
2023-04-16T19:33:30.039Z,99260.79
2023-04-16T19:36:04.993Z,99259.54
2023-04-16T19:38:39.127Z,99260.03
2023-04-16T19:41:11.781Z,99257.75
2023-04-16T19:43:44.754Z,99258.23
2023-04-16T19:46:18.126Z,99261.00
2023-04-16T19:48:50.621Z,99257.99
2023-04-16T19:51:23.213Z,99259.55
2023-04-16T19:53:58.940Z,99263.55
2023-04-16T19:56:31.421Z,99258.98
2023-04-16T19:59:07.026Z,99259.70
2023-04-16T20:01:40.847Z,99257.09
2023-04-16T20:04:13.444Z,99260.63
2023-04-16T20:06:46.180Z,99258.35
2023-04-16T20:09:21.739Z,99256.10
2023-04-16T20:11:54.241Z,99254.36
2023-04-16T20:14:26.721Z,99251.05
2023-04-16T20:17:01.957Z,99250.34
2023-04-16T20:19:38.397Z,99243.69
2023-04-16T20:22:10.892Z,99241.58
2023-04-16T20:24:47.858Z,99240.17
2023-04-16T20:27:21.190Z,99238.95
2023-04-16T20:29:54.104Z,99232.48
2023-04-16T20:32:28.046Z,99233.39
2023-04-16T20:35:02.086Z,99231.99
2023-04-16T20:37:38.747Z,99236.02
2023-04-16T20:40:16.550Z,99235.13
2023-04-16T20:42:52.207Z,99238.80
2023-04-16T20:45:25.526Z,99236.86
2023-04-16T20:47:58.000Z,99239.14
2023-04-16T20:50:30.568Z,99242.98
2023-04-16T20:53:06.090Z,99242.46
2023-04-16T20:55:41.034Z,99245.81
2023-04-16T20:58:13.702Z,99243.59
2023-04-16T21:00:52.426Z,99247.65
2023-04-16T21:03:25.207Z,99244.17
2023-04-16T21:05:59.471Z,99248.40
2023-04-16T21:08:32.784Z,99249.98
2023-04-16T21:11:05.732Z,99252.79
2023-04-16T21:13:38.075Z,99254.38
2023-04-16T21:16:12.548Z,99254.38
2023-04-16T21:18:47.360Z,99256.83
2023-04-16T21:21:20.225Z,99252.47
2023-04-16T21:23:53.046Z,99255.13
2023-04-16T21:26:25.611Z,99258.26
2023-04-16T21:28:58.094Z,99255.45
2023-04-16T21:31:32.863Z,99251.45
2023-04-16T21:34:08.124Z,99250.91
2023-04-16T21:36:40.825Z,99250.55
2023-04-16T21:39:14.302Z,99249.88
2023-04-16T21:41:50.942Z,99245.48
2023-04-16T21:44:23.763Z,99243.03
2023-04-16T21:46:56.445Z,99243.03
2023-04-16T21:49:32.223Z,99245.48
2023-04-16T21:52:05.212Z,99252.33
2023-04-16T21:54:38.677Z,99251.11
2023-04-16T21:57:11.883Z,99248.31
2023-04-16T21:59:44.391Z,99246.92
2023-04-16T22:02:17.067Z,99245.33
2023-04-16T22:04:50.472Z,99243.58
2023-04-16T22:07:24.107Z,99243.08
2023-04-16T22:09:56.845Z,99245.34
2023-04-16T22:12:29.410Z,99252.86
2023-04-16T22:15:03.123Z,99251.64
2023-04-16T22:17:36.439Z,99254.08
2023-04-16T22:20:13.387Z,99255.63
2023-04-16T22:22:47.927Z,99255.10
2023-04-16T22:25:20.465Z,99250.73
2023-04-16T22:27:53.874Z,99250.91
2023-04-16T22:30:29.840Z,99250.73
2023-04-16T22:33:21.338Z,99253.02
2023-04-16T22:36:14.189Z,99254.02
2023-04-16T22:39:01.114Z,99253.65
2023-04-16T22:41:53.829Z,99251.18
2023-04-16T22:44:45.513Z,99256.05
2023-04-16T22:47:38.402Z,99255.68
2023-04-16T22:50:32.483Z,99257.26
2023-04-16T22:53:25.583Z,99255.51
2023-04-16T22:56:18.599Z,99258.64
2023-04-16T22:59:11.455Z,99251.31
2023-04-16T23:01:47.400Z,99251.14
2023-04-16T23:04:38.781Z,99249.40
2023-04-16T23:07:31.775Z,99250.63
2023-04-16T23:10:24.554Z,99250.27
2023-04-16T23:13:17.686Z,99250.63
2023-04-16T23:16:10.878Z,99245.41
2023-04-16T23:19:03.487Z,99245.06
2023-04-16T23:21:56.269Z,99245.62
2023-04-16T23:24:49.134Z,99235.18
2023-04-16T23:27:41.988Z,99234.14
2023-04-16T23:30:26.029Z,99240.09
2023-04-16T23:33:18.909Z,99237.83
2023-04-16T23:36:01.707Z,99240.27
2023-04-16T23:38:54.367Z,99240.78
2023-04-16T23:41:47.200Z,99235.17
2023-04-16T23:44:39.825Z,99231.48
2023-04-16T23:47:32.808Z,99231.63
2023-04-16T23:50:25.762Z,99234.07
2023-04-16T23:53:18.569Z,99234.25
2023-04-16T23:56:04.169Z,99231.96
2023-04-16T23:58:46.687Z,99230.91
